ニューヨーク/JFK の空港の天気 - METARとTAF

ジョン・F・ケネディ国際空港 ( KJFK / JFK ) - アメリカ ニューヨーク州ニューヨーク
飛行場実況気象(Metar)
観測時間05/29 12:51 EDT (05/29 16:51 UTC)
風向・風速南 6m/s
視程8050m
天気現象煙霧
少しの雲 雲底高度 90m
全天を覆う雲 雲底高度 700m
気温20.6℃
湿度84%
気圧1016.2hPa
METARKJFK 291651Z 17012KT 5SM HZ FEW003 OVC023 21/18 A3001 RMK AO2 SLP162 T02060178
過去の天気等 Google飛行場航空写真 Wunderground天気予報

過去48時間のMETAR

飛行場予報(TAF)
発表時間: 5/29 11:05 EDT (5/29 15:05 UTC)
予報対象時間: 29日11時 EDT ~ 30日14時 EDT
風向・風速南 5m/s
視程10km以上
天気現象もや
全天の4割程度の雲 雲底高度 120m
全天の8割程度の雲 雲底高度 460m
29日11時 EDT ~ 29日13時 EDT に一時的に
視程8050m
天気現象もや
全天の8割程度の雲 雲底高度 120m
29日14時 EDT から
風向・風速南 6m/s
視程10km以上
天気現象周辺でしゅう雨
全天の4割程度の雲 雲底高度 210m
全天の8割程度の雲 雲底高度 760m
29日19時 EDT から
風向・風速南 8m/s
視程10km以上
全天の8割程度の雲 雲底高度 120m
全天の8割程度の雲 雲底高度 460m
29日21時 EDT から
風向・風速南 7m/s
視程4830m
天気現象もや 周辺でしゅう雨
全天の8割程度の雲 雲底高度 120m
全天の8割程度の雲 雲底高度 300m
30日4時 EDT から
風向・風速南南西 6m/s
視程8050m
天気現象もや
全天の8割程度の雲 雲底高度 1370m
30日10時 EDT から
風向・風速西南西 4m/s
視程10km以上
全天の8割程度の雲 雲底高度 4570m
KJFK 291505Z 2915/3018 17009KT 6SM BR SCT004 BKN015
TEMPO 2915/2917 5SM BR BKN004
FM291800 17012KT P6SM VCSH SCT007 BKN025
FM292300 17015KT P6SM BKN004 BKN015
FM300100 19013KT 3SM BR VCSH BKN004 BKN010
FM300800 20011KT 5SM BR BKN045
FM301400 25007KT P6SM BKN150